Time;durP1;ratioP1;P1;durP2;ratioP2;P2;SDS_P1;SDS_P2;PMS_P1;PMS_P2;Temp;Humidity;BMP_temperature;BMP_pressure;BME280_temperature;BME280_humidity;BME280_pressure;Samples;Min_cycle;Max_cycle;Signal;HPM_P1;HPM_P2
2023/09/06 00:02:06;;;;;;;0.50;0.50;;;;;;;;;;5061719;28;20897;-82
2023/09/06 00:04:34;;;;;;;0.60;0.60;;;;;;;;;;5061500;28;20506;-78
2023/09/06 00:07:03;;;;;;;1.33;1.33;;;;;;;;;;5060941;28;20477;-82
2023/09/06 00:09:31;;;;;;;2.30;2.20;;;;;;;;;;5060424;28;20447;-80
2023/09/06 00:11:58;;;;;;;1.80;1.70;;;;;;;;;;5060897;28;20438;-82
2023/09/06 00:14:29;;;;;;;1.20;1.20;;;;;;;;;;5060628;28;20478;-83
2023/09/06 00:16:59;;;;;;;1.20;1.20;;;;;;;;;;5061034;28;20747;-82
2023/09/06 00:19:26;;;;;;;2.83;2.63;;;;;;;;;;5061862;28;20787;-80
2023/09/06 00:21:54;;;;;;;2.60;2.40;;;;;;;;;;5061374;28;20446;-80
2023/09/06 00:24:21;;;;;;;1.00;1.00;;;;;;;;;;5059839;28;20518;-80
2023/09/06 00:26:49;;;;;;;1.77;1.70;;;;;;;;;;5061243;28;20466;-82
2023/09/06 00:29:17;;;;;;;2.70;2.57;;;;;;;;;;5059745;28;20596;-82
2023/09/06 00:31:44;;;;;;;1.13;1.13;;;;;;;;;;5061822;28;20436;-82
2023/09/06 00:34:13;;;;;;;1.20;1.10;;;;;;;;;;5054925;28;20680;-84
2023/09/06 00:36:40;;;;;;;0.90;0.90;;;;;;;;;;5061179;28;20430;-81
2023/09/06 00:39:09;;;;;;;2.00;1.73;;;;;;;;;;5060683;28;20672;-81
2023/09/06 00:41:41;;;;;;;0.90;0.90;;;;;;;;;;5065917;28;20512;-80
2023/09/06 00:44:09;;;;;;;1.03;1.00;;;;;;;;;;5065621;28;20434;-82
2023/09/06 00:46:37;;;;;;;0.70;0.70;;;14.10;99.90;;;;;;5072939;28;20446;-81
2023/09/06 00:49:07;;;;;;;1.20;1.20;;;;;;;;;;5059385;28;20508;-80
2023/09/06 00:51:34;;;;;;;0.90;0.90;;;;;;;;;;5058569;28;20446;-81
2023/09/06 00:54:04;;;;;;;0.90;0.90;;;14.00;99.90;;;;;;5062987;28;20545;-81
2023/09/06 00:56:32;;;;;;;0.70;0.70;;;;;;;;;;5059842;28;20468;-79
2023/09/06 00:59:01;;;;;;;1.10;1.10;;;;;;;;;;5059434;28;20696;-79
2023/09/06 01:01:28;;;;;;;2.10;1.90;;;;;;;;;;5057901;28;20438;-80
2023/09/06 01:03:57;;;;;;;3.33;3.13;;;13.80;99.90;;;;;;5060083;28;20450;-79
2023/09/06 01:06:27;;;;;;;2.07;1.97;;;13.90;99.90;;;;;;5065518;28;20501;-83
2023/09/06 01:08:57;;;;;;;0.60;0.60;;;13.80;99.90;;;;;;5060846;28;20454;-81
2023/09/06 01:11:26;;;;;;;1.23;1.23;;;13.70;99.90;;;;;;5068660;28;20772;-83
2023/09/06 01:13:55;;;;;;;0.60;0.60;;;13.70;99.90;;;;;;5060214;28;20474;-80
2023/09/06 01:16:28;;;;;;;0.97;0.97;;;13.70;99.90;;;;;;5060692;28;20502;-88
2023/09/06 01:18:57;;;;;;;2.67;2.50;;;13.70;99.90;;;;;;5061743;28;20451;-85
2023/09/06 01:21:38;;;;;;;1.07;1.07;;;13.70;99.90;;;;;;5061626;28;20543;-85
2023/09/06 01:24:07;;;;;;;1.00;0.97;;;13.60;99.90;;;;;;5054510;28;20632;-86
2023/09/06 01:26:36;;;;;;;1.07;1.07;;;10.20;99.90;;;;;;5059336;28;20435;-84
2023/09/06 01:29:07;;;;;;;0.60;0.60;;;;;;;;;;5061248;28;20494;-82
2023/09/06 01:31:35;;;;;;;2.57;2.47;;;;;;;;;;5061076;28;20465;-83
2023/09/06 01:34:03;;;;;;;0.70;0.70;;;;;;;;;;5060540;28;20706;-83
2023/09/06 01:36:31;;;;;;;2.50;2.00;;;;;;;;;;5070192;28;20464;-84
2023/09/06 01:38:59;;;;;;;2.30;2.20;;;;;;;;;;5082154;28;20453;-81
2023/09/06 01:41:26;;;;;;;3.53;1.60;;;;;;;;;;5074810;28;20446;-84
2023/09/06 01:43:54;;;;;;;0.50;0.50;;;;;;;;;;5072793;28;20472;-85
2023/09/06 01:46:24;;;;;;;1.93;1.83;;;;;;;;;;5060285;28;20928;-80
2023/09/06 01:48:52;;;;;;;1.20;1.20;;;;;;;;;;5059428;28;20437;-79
2023/09/06 01:51:22;;;;;;;3.00;2.80;;;;;;;;;;5060130;28;20445;-82
2023/09/06 01:53:50;;;;;;;3.13;2.37;;;;;;;;;;5061541;28;20489;-79
2023/09/06 01:56:17;;;;;;;1.20;1.20;;;;;;;;;;5059771;28;20450;-84
2023/09/06 01:58:46;;;;;;;4.97;3.17;;;;;;;;;;5058890;28;20465;-80
2023/09/06 02:01:13;;;;;;;3.87;3.47;;;;;;;;;;5059786;28;20505;-81
2023/09/06 02:03:41;;;;;;;2.03;1.83;;;;;;;;;;5059581;28;20538;-82
2023/09/06 02:06:08;;;;;;;2.83;2.63;;;;;;;;;;5059555;28;20626;-84
2023/09/06 02:08:36;;;;;;;0.90;0.90;;;;;;;;;;5060643;28;20450;-83
2023/09/06 02:11:03;;;;;;;3.17;2.90;;;;;;;;;;5057623;28;20446;-80
2023/09/06 02:13:30;;;;;;;1.77;1.67;;;;;;;;;;5059168;28;20430;-80
2023/09/06 02:15:59;;;;;;;1.10;1.00;;;12.90;99.90;;;;;;5061843;28;20434;-80
2023/09/06 02:18:27;;;;;;;0.83;0.83;;;;;;;;;;5062556;28;20434;-81
2023/09/06 02:20:55;;;;;;;2.07;1.97;;;;;;;;;;5062655;28;20476;-81
2023/09/06 02:23:23;;;;;;;0.70;0.70;;;;;;;;;;5061877;28;20789;-81
2023/09/06 02:25:50;;;;;;;2.70;1.63;;;;;;;;;;5063507;28;20476;-81
2023/09/06 02:28:18;;;;;;;1.33;1.23;;;;;;;;;;5064602;28;20439;-82
2023/09/06 02:30:46;;;;;;;0.97;0.97;;;;;;;;;;5068893;28;20504;-80
2023/09/06 02:33:16;;;;;;;4.60;2.33;;;12.90;99.90;;;;;;5072477;28;20441;-84
2023/09/06 02:35:44;;;;;;;2.83;2.63;;;;;;;;;;5066151;28;20671;-84
2023/09/06 02:38:13;;;;;;;0.57;0.57;;;12.90;99.90;;;;;;5096326;28;20630;-81
2023/09/06 02:40:43;;;;;;;1.63;1.53;;;;;;;;;;5092455;28;20445;-82
2023/09/06 02:43:13;;;;;;;2.70;1.53;;;;;;;;;;5064199;28;20442;-84
2023/09/06 02:45:49;;;;;;;0.87;0.87;;;;;;;;;;5062292;28;20514;-84
2023/09/06 02:48:18;;;;;;;1.53;1.53;;;;;;;;;;5061302;28;20466;-87
2023/09/06 02:50:46;;;;;;;2.93;2.73;;;;;;;;;;5066102;28;20446;-86
2023/09/06 02:53:20;;;;;;;4.32;4.03;;;;;;;;;;5072279;28;20438;-81
2023/09/06 02:55:54;;;;;;;0.83;0.83;;;12.80;99.90;;;;;;5065192;28;20255;-90
2023/09/06 02:58:24;;;;;;;1.90;1.80;;;;;;;;;;5063498;28;20996;-79
2023/09/06 03:00:58;;;;;;;0.70;0.70;;;12.80;99.90;;;;;;5063513;28;20633;-89
2023/09/06 03:03:27;;;;;;;2.97;2.60;;;;;;;;;;5075423;28;20204;-89
2023/09/06 03:06:04;;;;;;;3.10;2.95;;;12.70;99.90;;;;;;5065201;28;20194;-84
2023/09/06 03:08:38;;;;;;;3.90;2.47;;;12.60;99.90;;;;;;5068158;28;20295;-83
2023/09/06 03:11:11;;;;;;;3.63;3.33;;;12.60;99.90;;;;;;5062579;28;20446;-83
2023/09/06 03:13:42;;;;;;;2.67;2.35;;;;;;;;;;5067204;28;20243;-85
2023/09/06 03:16:13;;;;;;;1.27;1.17;;;;;;;;;;5063489;28;20190;-79
2023/09/06 03:18:42;;;;;;;3.57;3.37;;;12.50;99.90;;;;;;5064329;28;20496;-83
2023/09/06 03:21:12;;;;;;;5.47;4.40;;;;;;;;;;5059390;28;20462;-86
2023/09/06 03:23:44;;;;;;;0.60;0.60;;;;;;;;;;5059350;28;20239;-81
2023/09/06 03:26:14;;;;;;;2.10;1.23;;;;;;;;;;5065369;28;20366;-85
2023/09/06 03:28:49;;;;;;;2.37;2.17;;;;;;;;;;5053676;28;20453;-86
2023/09/06 03:31:18;;;;;;;1.08;1.08;;;;;;;;;;5059112;28;20446;-82
2023/09/06 03:33:46;;;;;;;1.40;1.30;;;;;;;;;;5063938;28;20229;-88
2023/09/06 03:36:14;;;;;;;1.88;1.77;;;;;;;;;;5060398;28;20382;-86
2023/09/06 03:38:42;;;;;;;1.95;1.50;;;;;;;;;;5072460;28;20199;-85
2023/09/06 03:41:11;;;;;;;2.13;1.85;;;;;;;;;;5068862;28;20185;-87
2023/09/06 03:43:39;;;;;;;2.05;1.95;;;;;;;;;;5076382;28;20328;-86
2023/09/06 03:46:13;;;;;;;1.15;1.05;;;;;;;;;;5076415;28;20201;-85
2023/09/06 03:48:42;;;;;;;1.40;1.30;;;;;;;;;;5073992;28;20229;-81
2023/09/06 03:51:13;;;;;;;1.10;1.10;;;;;;;;;;5062186;28;20200;-86
2023/09/06 03:53:42;;;;;;;0.75;0.75;;;;;;;;;;5061572;28;20438;-83
2023/09/06 03:56:12;;;;;;;1.52;1.52;;;;;;;;;;5062722;28;20282;-81
2023/09/06 03:58:53;;;;;;;1.73;1.67;;;12.30;99.90;;;;;;5062233;28;20202;-86
2023/09/06 04:01:26;;;;;;;2.17;2.03;;;;;;;;;;5063533;28;20438;-86
2023/09/06 04:03:54;;;;;;;1.03;0.97;;;;;;;;;;5063229;28;20442;-86
2023/09/06 04:06:22;;;;;;;1.70;1.60;;;;;;;;;;5063411;28;20439;-86
2023/09/06 04:08:53;;;;;;;3.10;2.90;;;;;;;;;;5064284;28;20201;-82
2023/09/06 04:11:21;;;;;;;3.72;2.63;;;;;;;;;;5056769;28;20201;-81
2023/09/06 04:13:55;;;;;;;0.70;0.70;;;12.50;99.90;;;;;;5062598;28;20208;-87
2023/09/06 04:16:23;;;;;;;2.22;2.13;;;;;;;;;;5058470;28;20197;-84
2023/09/06 04:18:52;;;;;;;1.08;0.88;;;;;;;;;;5062516;28;20205;-85
2023/09/06 04:21:22;;;;;;;0.65;0.65;;;;;;;;;;5063972;28;20273;-85
2023/09/06 04:23:49;;;;;;;0.90;0.90;;;;;;;;;;5063321;28;20447;-84
2023/09/06 04:26:17;;;;;;;0.50;0.50;;;;;;;;;;5063233;28;20262;-89
2023/09/06 04:28:52;;;;;;;1.20;1.20;;;;;;;;;;5061848;28;20227;-87
2023/09/06 04:31:21;;;;;;;2.08;1.88;;;;;;;;;;5062648;28;20208;-89
2023/09/06 04:33:49;;;;;;;2.85;2.65;;;;;;;;;;5063083;28;20216;-87
2023/09/06 04:36:18;;;;;;;1.40;1.35;;;;;;;;;;5054603;28;20524;-86
2023/09/06 04:38:46;;;;;;;0.80;0.80;;;;;;;;;;5064039;28;20247;-90
2023/09/06 04:41:14;;;;;;;0.80;0.80;;;;;;;;;;5058234;28;20204;-85
2023/09/06 04:43:42;;;;;;;1.70;1.60;;;;;;;;;;5075528;28;20364;-84
2023/09/06 04:46:09;;;;;;;2.30;2.20;;;;;;;;;;5075528;28;20211;-87
2023/09/06 04:48:40;;;;;;;1.30;1.30;;;;;;;;;;5065122;28;20544;-84
2023/09/06 04:51:07;;;;;;;0.60;0.60;;;;;;;;;;5074003;28;20219;-85
2023/09/06 04:53:36;;;;;;;1.00;1.00;;;;;;;;;;5078912;28;20201;-85
2023/09/06 04:56:04;;;;;;;2.60;2.50;;;12.60;99.90;;;;;;5072683;28;20233;-85
2023/09/06 04:58:32;;;;;;;5.93;2.08;;;;;;;;;;5068439;28;20261;-83
2023/09/06 05:01:06;;;;;;;2.92;1.65;;;12.80;99.90;;;;;;5058984;28;20501;-82
2023/09/06 05:03:35;;;;;;;1.77;1.67;;;;;;;;;;5054591;28;20358;-83
2023/09/06 05:06:03;;;;;;;1.80;1.70;;;;;;;;;;5061362;28;20508;-80
2023/09/06 05:08:32;;;;;;;1.77;1.10;;;;;;;;;;5062016;28;20433;-83
2023/09/06 05:11:00;;;;;;;2.23;2.13;;;;;;;;;;5058635;28;20253;-82
2023/09/06 05:13:28;;;;;;;2.83;2.37;;;;;;;;;;5056735;28;20728;-83
2023/09/06 05:16:21;;;;;;;0.70;0.70;;;13.60;99.90;;;;;;5061038;28;20643;-89
2023/09/06 05:18:49;;;;;;;2.07;1.97;;;;;;;;;;5062018;28;20435;-83
2023/09/06 05:21:27;;;;;;;1.90;1.80;;;13.90;99.90;;;;;;5061813;28;20435;-84
2023/09/06 05:24:02;;;;;;;0.80;0.80;;;;;;;;;;5060196;28;20453;-84
2023/09/06 05:26:33;;;;;;;3.00;2.80;;;;;;;;;;5061476;28;20438;-84
2023/09/06 05:29:14;;;;;;;;;;;;;;;;;;;;;
2023/09/06 05:31:44;;;;;;;0.80;0.80;;;;;;;;;;5065801;28;20453;-84
2023/09/06 05:34:19;;;;;;;3.37;3.17;;;;;;;;;;5057536;28;20499;-86
2023/09/06 05:37:08;;;;;;;1.37;1.27;;;14.80;99.90;;;;;;5060633;28;20442;-85
2023/09/06 05:39:48;;;;;;;0.83;0.83;;;15.00;99.90;;;;;;5056577;28;20451;-84
2023/09/06 05:42:16;;;;;;;2.20;2.10;;;;;;;;;;5071899;28;20442;-86
2023/09/06 05:44:47;;;;;;;2.00;1.80;;;;;;;;;;5068084;28;20447;-87
2023/09/06 05:47:14;;;;;;;0.80;0.80;;;;;;;;;;5066137;28;20442;-82
2023/09/06 05:49:46;;;;;;;1.87;1.80;;;;;;;;;;5067808;28;20434;-82
2023/09/06 05:52:14;;;;;;;0.70;0.70;;;;;;;;;;5065641;28;20451;-82
2023/09/06 05:54:41;;;;;;;4.53;1.90;;;;;;;;;;5062882;28;20831;-81
2023/09/06 05:57:12;;;;;;;0.50;0.50;;;15.90;99.90;;;;;;5063384;28;20766;-84
2023/09/06 05:59:39;;;;;;;0.70;0.70;;;;;;;;;;5065008;28;20439;-84
2023/09/06 06:02:11;;;;;;;0.60;0.60;;;16.20;99.90;;;;;;5065308;28;20506;-83
2023/09/06 06:04:39;;;;;;;0.73;0.73;;;;;;;;;;5064467;28;20511;-85
2023/09/06 06:07:07;;;;;;;1.10;1.10;;;;;;;;;;5063525;28;20743;-88
2023/09/06 06:09:35;;;;;;;0.60;0.60;;;;;;;;;;5063410;28;20447;-84
2023/09/06 06:12:03;;;;;;;1.43;1.37;;;;;;;;;;5064981;28;20756;-85
2023/09/06 06:14:31;;;;;;;0.90;0.90;;;;;;;;;;5059696;28;20438;-86
2023/09/06 06:16:59;;;;;;;0.90;0.90;;;17.50;99.90;;;;;;5067078;28;20587;-86
2023/09/06 06:19:28;;;;;;;0.70;0.70;;;;;;;;;;5067432;28;20496;-86
2023/09/06 06:21:57;;;;;;;0.80;0.80;;;17.70;99.90;;;;;;5065444;28;20747;-87
2023/09/06 06:24:26;;;;;;;2.97;2.60;;;;;;;;;;5064860;28;20447;-85
2023/09/06 06:26:55;;;;;;;1.00;1.00;;;;;;;;;;5066290;28;20459;-85
2023/09/06 06:29:23;;;;;;;2.20;2.10;;;18.10;99.90;;;;;;5064827;28;20450;-84
2023/09/06 06:31:52;;;;;;;8.63;1.83;;;;;;;;;;5068253;28;20527;-87
2023/09/06 06:34:20;;;;;;;1.50;1.50;;;;;;;;;;5065688;28;20466;-84
2023/09/06 06:36:49;;;;;;;1.20;1.20;;;;;;;;;;5067413;28;20477;-83
2023/09/06 06:39:17;;;;;;;2.20;2.10;;;;;;;;;;5069661;28;20500;-86
2023/09/06 06:41:45;;;;;;;1.27;1.23;;;;;;;;;;5065858;28;20438;-84
2023/09/06 06:44:13;;;;;;;0.70;0.70;;;;;;;;;;5065571;28;20434;-86
2023/09/06 06:46:43;;;;;;;1.30;1.20;;;;;;;;;;5066079;28;20632;-84
2023/09/06 06:49:10;;;;;;;1.27;1.27;;;;;;;;;;5065665;28;20444;-85
2023/09/06 06:51:40;;;;;;;1.57;1.50;;;20.50;99.90;;;;;;5065226;28;20601;-86
2023/09/06 06:54:10;;;;;;;1.63;1.40;;;20.50;99.90;;;;;;5068068;28;20499;-85
2023/09/06 06:56:38;;;;;;;1.57;1.47;;;;;;;;;;5063791;28;20506;-84
2023/09/06 06:59:07;;;;;;;2.90;2.70;;;;;;;;;;5063845;28;20459;-85
2023/09/06 07:01:34;;;;;;;1.23;1.23;;;;;;;;;;5063642;28;20458;-86
2023/09/06 07:04:04;;;;;;;1.10;1.10;;;;;;;;;;5064482;28;20455;-86
2023/09/06 07:06:32;;;;;;;1.53;1.43;;;22.70;99.90;;;;;;5056343;28;20809;-84
2023/09/06 07:09:03;;;;;;;1.13;1.13;;;;;;;;;;5064538;28;20785;-84
2023/09/06 07:11:31;;;;;;;2.10;2.00;;;;;;;;;;5057054;28;20442;-84
2023/09/06 07:13:58;;;;;;;1.70;1.60;;;;;;;;;;5064832;28;20746;-84
2023/09/06 07:16:26;;;;;;;2.03;1.93;;;25.10;99.70;;;;;;5064925;28;20479;-84
2023/09/06 07:18:58;;;;;;;1.10;1.10;;;;;;;;;;5064822;28;20486;-85
2023/09/06 07:21:27;;;;;;;3.00;2.70;;;;;;;;;;5062861;28;20444;-84
2023/09/06 07:23:55;;;;;;;1.30;1.30;;;;;;;;;;5063764;28;20787;-85
2023/09/06 07:26:22;;;;;;;1.80;1.70;;;;;;;;;;5064841;28;20437;-84
2023/09/06 07:28:50;;;;;;;1.30;1.30;;;;;;;;;;5063216;28;20809;-85
2023/09/06 07:31:18;;;;;;;3.43;3.17;;;;;;;;;;5063396;28;20444;-84
2023/09/06 07:33:46;;;;;;;1.60;1.50;;;;;;;;;;5063007;28;20812;-84
2023/09/06 07:36:14;;;;;;;1.00;1.00;;;;;;;;;;5062673;28;20546;-84
2023/09/06 07:38:42;;;;;;;2.27;2.17;;;29.10;75.80;;;;;;5063430;28;20461;-84
2023/09/06 07:41:12;;;;;;;2.93;2.73;;;;;;;;;;5063446;28;20483;-85
2023/09/06 07:43:39;;;;;;;1.30;1.30;;;;;;;;;;5063328;28;20465;-86
2023/09/06 07:46:08;;;;;;;1.60;1.50;;;29.80;68.30;;;;;;5063996;28;20448;-86
2023/09/06 07:48:38;;;;;;;1.90;1.80;;;;;;;;;;5063860;28;20766;-85
2023/09/06 07:51:07;;;;;;;1.80;1.70;;;;;;;;;;5063454;28;20647;-86
2023/09/06 07:53:35;;;;;;;1.47;1.47;;;;;;;;;;5063509;28;20566;-85
2023/09/06 07:56:05;;;;;;;1.60;1.60;;;;;;;;;;5063157;28;20481;-84
2023/09/06 07:58:34;;;;;;;1.37;1.37;;;;;;;;;;5063456;28;20472;-84
2023/09/06 08:01:04;;;;;;;1.80;1.70;;;;;;;;;;5062044;28;20437;-84
2023/09/06 08:03:45;;;;;;;1.40;1.40;;;;;;;;;;5059614;28;20623;-84
2023/09/06 08:06:13;;;;;;;1.60;1.60;;;31.90;58.90;;;;;;5060363;28;20446;-85
2023/09/06 08:08:42;;;;;;;1.77;1.67;;;;;;;;;;5062693;28;20446;-84
2023/09/06 08:11:10;;;;;;;1.30;1.30;;;31.40;58.20;;;;;;5060923;28;20696;-83
2023/09/06 08:13:37;;;;;;;2.23;1.67;;;;;;;;;;5054947;28;20433;-84
2023/09/06 08:16:05;;;;;;;3.43;3.23;;;;;;;;;;5063069;28;20505;-86
2023/09/06 08:18:32;;;;;;;1.43;1.40;;;30.40;58.80;;;;;;5061796;28;20472;-84
2023/09/06 08:21:00;;;;;;;1.50;1.40;;;31.10;59.80;;;;;;5062608;28;20438;-85
2023/09/06 08:23:28;;;;;;;1.03;1.03;;;31.20;59.20;;;;;;5063339;28;20735;-85
2023/09/06 08:25:57;;;;;;;1.00;1.00;;;32.00;57.90;;;;;;5061974;28;20437;-87
2023/09/06 08:28:24;;;;;;;1.10;1.10;;;31.30;57.40;;;;;;5062620;28;20649;-84
2023/09/06 08:30:52;;;;;;;1.93;1.83;;;;;;;;;;5062870;28;20742;-81
2023/09/06 08:33:20;;;;;;;1.20;1.20;;;32.20;56.50;;;;;;5064177;28;20451;-85
2023/09/06 08:35:47;;;;;;;1.20;1.20;;;31.90;64.00;;;;;;5061784;28;20607;-86
2023/09/06 08:38:14;;;;;;;1.10;1.10;;;;;;;;;;5063421;28;20595;-87
2023/09/06 08:40:42;;;;;;;1.20;1.20;;;;;;;;;;5064115;28;20782;-84
2023/09/06 08:43:10;;;;;;;1.30;1.30;;;;;;;;;;5063597;28;20512;-84
2023/09/06 08:45:40;;;;;;;1.20;1.20;;;32.20;55.70;;;;;;5063370;28;20450;-84
2023/09/06 08:48:07;;;;;;;1.20;1.20;;;;;;;;;;5067556;28;20506;-86
2023/09/06 08:50:35;;;;;;;3.90;1.70;;;;;;;;;;5062750;28;20670;-85
2023/09/06 08:53:05;;;;;;;2.23;2.13;;;31.80;55.80;;;;;;5062064;28;20440;-87
2023/09/06 08:55:33;;;;;;;1.20;1.20;;;;;;;;;;5069892;28;20816;-86
2023/09/06 08:58:20;;;;;;;1.20;1.20;;;31.20;57.00;;;;;;5064864;28;20472;-87
2023/09/06 09:00:47;;;;;;;1.37;1.37;;;;;;;;;;5072018;28;20437;-85
2023/09/06 09:03:15;;;;;;;1.70;1.63;;;;;;;;;;5068586;28;20445;-82
2023/09/06 09:05:42;;;;;;;1.20;1.20;;;;;;;;;;5065459;28;20454;-85
2023/09/06 09:08:10;;;;;;;1.70;1.60;;;;;;;;;;5063256;28;20572;-82
2023/09/06 09:10:37;;;;;;;1.10;1.10;;;30.10;62.70;;;;;;5063680;28;20440;-86
2023/09/06 09:13:05;;;;;;;2.13;2.03;;;;;;;;;;5063867;28;20536;-87
2023/09/06 09:15:33;;;;;;;1.00;1.00;;;;;;;;;;5061625;28;20475;-80
2023/09/06 09:18:11;;;;;;;1.47;1.47;;;30.00;59.00;;;;;;5064023;28;20429;-87
2023/09/06 09:20:41;;;;;;;2.30;2.20;;;;;;;;;;5063863;28;20472;-86
2023/09/06 09:23:14;;;;;;;1.13;1.13;;;29.20;61.70;;;;;;5062752;28;20732;-84
2023/09/06 09:25:49;;;;;;;1.60;1.50;;;28.30;64.00;;;;;;5062710;28;20446;-85
2023/09/06 09:28:16;;;;;;;1.10;1.10;;;28.60;63.80;;;;;;5064409;28;20443;-84
2023/09/06 09:30:47;;;;;;;7.13;2.33;;;28.10;63.60;;;;;;5055712;28;20447;-84
2023/09/06 09:33:15;;;;;;;1.10;1.10;;;28.10;69.60;;;;;;5062006;28;20433;-80
2023/09/06 09:35:44;;;;;;;1.10;1.10;;;;;;;;;;5060519;28;20475;-86
2023/09/06 09:38:12;;;;;;;1.10;1.10;;;;;;;;;;5066333;28;20527;-83
2023/09/06 09:40:39;;;;;;;1.67;1.57;;;;;;;;;;5065565;28;20487;-82
2023/09/06 09:43:21;;;;;;;1.10;1.10;;;27.10;70.00;;;;;;5070754;28;20507;-81
2023/09/06 09:45:48;;;;;;;1.20;1.20;;;;;;;;;;5059685;28;20662;-82
2023/09/06 09:48:16;;;;;;;3.37;3.17;;;;;;;;;;5066811;28;20418;-85
2023/09/06 09:50:46;;;;;;;1.70;1.60;;;;;;;;;;5069408;28;20422;-80
2023/09/06 09:53:21;;;;;;;1.87;1.77;;;26.60;64.80;;;;;;5070518;28;20447;-84
2023/09/06 09:55:53;;;;;;;0.90;0.90;;;27.00;65.70;;;;;;5069220;28;20535;-84
2023/09/06 09:58:22;;;;;;;1.50;1.40;;;;;;;;;;5077143;28;20410;-86
2023/09/06 10:00:50;;;;;;;2.03;1.93;;;;;;;;;;5073041;28;20439;-85
2023/09/06 10:03:19;;;;;;;1.10;1.10;;;26.90;65.10;;;;;;5068576;28;20420;-84
2023/09/06 10:05:47;;;;;;;6.13;2.10;;;26.90;66.40;;;;;;5271964;22;20531;-85
2023/09/06 10:08:17;;;;;;;1.23;1.20;;;26.90;66.20;;;;;;5066599;28;20501;-84
2023/09/06 10:10:45;;;;;;;1.00;1.00;;;;;;;;;;5064256;28;20623;-85
2023/09/06 10:13:14;;;;;;;1.03;1.03;;;27.10;65.40;;;;;;5063485;28;20454;-85
2023/09/06 10:15:43;;;;;;;2.50;2.40;;;27.20;66.30;;;;;;5066535;28;20416;-85
2023/09/06 10:18:11;;;;;;;1.83;1.77;;;;;;;;;;5064423;28;20438;-85
2023/09/06 10:20:40;;;;;;;1.20;1.20;;;26.60;68.30;;;;;;5058248;28;20535;-82
2023/09/06 10:23:12;;;;;;;1.10;1.10;;;26.60;67.60;;;;;;5063671;28;20438;-85
2023/09/06 10:25:49;;;;;;;1.00;1.00;;;26.70;67.80;;;;;;5063850;28;20450;-81
2023/09/06 10:28:20;;;;;;;1.43;1.33;;;26.80;69.20;;;;;;5064211;28;20411;-87
2023/09/06 10:30:57;;;;;;;1.10;1.10;;;26.70;66.40;;;;;;5054042;28;20446;-84
2023/09/06 10:33:34;;;;;;;1.00;1.00;;;27.00;68.00;;;;;;5065405;28;20424;-82
2023/09/06 10:36:09;;;;;;;1.10;1.10;;;26.30;67.80;;;;;;5062361;28;20488;-86
2023/09/06 10:38:52;;;;;;;2.00;1.80;;;26.30;68.90;;;;;;5070834;28;20413;-86
2023/09/06 10:41:20;;;;;;;1.60;1.50;;;;;;;;;;5074265;28;20841;-84
2023/09/06 10:43:55;;;;;;;1.10;1.10;;;26.40;82.70;;;;;;5054022;28;20506;-85
2023/09/06 10:46:24;;;;;;;1.10;1.10;;;;;;;;;;5068654;28;20452;-81
2023/09/06 10:49:10;;;;;;;1.53;1.43;;;26.10;73.50;;;;;;5071858;28;20400;-85
2023/09/06 10:52:11;;;;;;;0.90;0.90;;;26.20;72.20;;;;;;5076144;28;20509;-79
2023/09/06 10:54:43;;;;;;;1.70;1.60;;;26.20;70.30;;;;;;5067590;28;20412;-85
2023/09/06 10:57:14;;;;;;;1.30;1.30;;;26.40;74.00;;;;;;5070290;28;20463;-84
2023/09/06 10:59:57;;;;;;;1.10;1.10;;;26.60;69.40;;;;;;5077528;28;20461;-82
2023/09/06 11:02:30;;;;;;;1.30;1.30;;;26.40;66.20;;;;;;5068674;28;20623;-78
2023/09/06 11:05:09;;;;;;;3.40;3.20;;;26.40;66.90;;;;;;5056444;28;20427;-85
2023/09/06 11:07:41;;;;;;;0.93;0.93;;;23.20;65.00;;;;;;5066723;28;20444;-84
2023/09/06 11:10:22;;;;;;;1.00;1.00;;;26.20;67.40;;;;;;5070529;28;20583;-85
2023/09/06 11:12:53;;;;;;;1.10;1.10;;;25.90;69.20;;;;;;5065603;28;20433;-85
2023/09/06 11:15:22;;;;;;;2.70;2.50;;;;;;;;;;5061585;28;20469;-83
2023/09/06 11:17:52;;;;;;;1.07;1.00;;;26.10;66.60;;;;;;5060103;28;20554;-80
2023/09/06 11:20:20;;;;;;;1.00;1.00;;;;;;;;;;5053311;28;20448;-87
2023/09/06 11:22:52;;;;;;;0.90;0.90;;;26.20;67.70;;;;;;5057099;28;20805;-85
2023/09/06 11:25:21;;;;;;;1.90;1.80;;;25.90;68.40;;;;;;5064758;28;20442;-85
2023/09/06 11:27:50;;;;;;;1.40;1.30;;;;;;;;;;5059198;28;20433;-87
2023/09/06 11:30:21;;;;;;;4.33;2.80;;;26.40;68.40;;;;;;5065408;28;20418;-88
2023/09/06 11:32:55;;;;;;;2.17;2.07;;;26.50;67.90;;;;;;5058700;28;20852;-88
2023/09/06 11:35:32;;;;;;;2.80;2.60;;;26.50;67.60;;;;;;5061681;28;20470;-85
2023/09/06 11:38:01;;;;;;;0.80;0.80;;;;;;;;;;5058307;28;20614;-86
2023/09/06 11:40:32;;;;;;;1.10;1.10;;;26.60;67.20;;;;;;5063785;28;20426;-84
2023/09/06 11:43:04;;;;;;;1.20;1.20;;;26.70;67.20;;;;;;5053681;28;20701;-87
2023/09/06 11:45:33;;;;;;;1.10;1.10;;;;;;;;;;5063580;28;20425;-86
2023/09/06 11:48:10;;;;;;;1.00;1.00;;;;;;;;;;5065531;28;20447;-85
2023/09/06 11:50:40;;;;;;;1.67;1.57;;;;;;;;;;5065497;28;20620;-85
2023/09/06 11:53:09;;;;;;;0.90;0.90;;;;;;;;;;5064561;28;20505;-85
2023/09/06 11:55:41;;;;;;;0.90;0.90;;;;;;;;;;5071473;28;20427;-88
2023/09/06 11:58:20;;;;;;;1.20;1.20;;;26.60;66.30;;;;;;5065961;28;20464;-85
2023/09/06 12:00:50;;;;;;;1.03;1.03;;;26.40;64.20;;;;;;5063483;28;20654;-85
2023/09/06 12:03:21;;;;;;;0.90;0.90;;;26.40;69.80;;;;;;5057324;28;20457;-85
2023/09/06 12:05:53;;;;;;;1.00;1.00;;;26.50;64.80;;;;;;5063414;28;20471;-84
2023/09/06 12:08:23;;;;;;;1.20;1.20;;;26.50;68.90;;;;;;5067696;28;20411;-82
2023/09/06 12:11:05;;;;;;;1.50;1.40;;;26.40;67.20;;;;;;5073443;28;20450;-84
2023/09/06 12:13:35;;;;;;;0.90;0.90;;;;;;;;;;5071331;28;20424;-86
2023/09/06 12:16:07;;;;;;;0.90;0.90;;;26.80;65.20;;;;;;5064579;28;20424;-88
2023/09/06 12:18:36;;;;;;;1.70;1.60;;;26.70;65.80;;;;;;5064691;28;20446;-83
2023/09/06 12:21:05;;;;;;;0.93;0.93;;;27.90;66.50;;;;;;5060010;28;20637;-86
2023/09/06 12:23:34;;;;;;;1.13;1.13;;;26.90;62.50;;;;;;5066771;28;20493;-86
2023/09/06 12:26:05;;;;;;;1.00;1.00;;;;;;;;;;5057134;28;20451;-87
2023/09/06 12:28:33;;;;;;;0.90;0.90;;;;;;;;;;5064507;28;20426;-86
2023/09/06 12:31:05;;;;;;;0.90;0.90;;;;;;;;;;5064203;28;20420;-78
2023/09/06 12:33:35;;;;;;;1.30;1.30;;;26.70;65.00;;;;;;5059428;28;20687;-85
2023/09/06 12:36:05;;;;;;;1.87;1.67;;;26.70;65.70;;;;;;5065542;28;20511;-84
2023/09/06 12:38:33;;;;;;;1.43;1.40;;;;;;;;;;5056069;28;20490;-79
2023/09/06 12:41:00;;;;;;;1.00;1.00;;;26.30;67.50;;;;;;5076794;28;20450;-84
2023/09/06 12:43:30;;;;;;;1.37;1.33;;;;;;;;;;5188292;22;20488;-83
2023/09/06 12:45:57;;;;;;;1.47;1.47;;;26.50;66.30;;;;;;5113620;28;20439;-84
2023/09/06 12:48:26;;;;;;;1.33;1.33;;;;;;;;;;5111624;28;20415;-85
2023/09/06 12:50:54;;;;;;;1.10;1.10;;;;;;;;;;5117461;28;20416;-80
2023/09/06 12:53:26;;;;;;;1.73;1.63;;;26.60;65.00;;;;;;5099999;28;20505;-87
2023/09/06 12:55:53;;;;;;;2.20;2.10;;;;;;;;;;5096294;28;20429;-85
2023/09/06 12:58:20;;;;;;;2.50;1.63;;;26.40;68.40;;;;;;5090092;28;20516;-86
2023/09/06 13:00:48;;;;;;;1.70;1.60;;;;;;;;;;5086831;28;20442;-86
2023/09/06 13:03:31;;;;;;;1.30;1.30;;;26.60;64.80;;;;;;5102776;28;20470;-87
2023/09/06 13:06:10;;;;;;;3.60;2.17;;;26.70;65.50;;;;;;5095315;28;20456;-86
2023/09/06 13:08:38;;;;;;;2.83;1.90;;;;;;;;;;5094099;28;20452;-86
2023/09/06 13:11:06;;;;;;;3.00;2.80;;;;;;;;;;5106169;28;20424;-85
2023/09/06 13:13:39;;;;;;;1.60;1.50;;;26.50;63.50;;;;;;5104036;28;20446;-88
2023/09/06 13:16:07;;;;;;;1.40;1.30;;;;;;;;;;5072697;28;20440;-85
2023/09/06 13:18:35;;;;;;;1.60;1.50;;;;;;;;;;5098720;28;20421;-87
2023/09/06 13:21:05;;;;;;;8.60;2.57;;;;;;;;;;5104167;28;20444;-85
2023/09/06 13:23:33;;;;;;;1.47;1.47;;;;;;;;;;5094034;28;20452;-86
2023/09/06 13:26:00;;;;;;;1.73;1.63;;;;;;;;;;5096005;28;20666;-86
2023/09/06 13:28:28;;;;;;;1.73;1.63;;;;;;;;;;5093968;28;20403;-80
2023/09/06 13:30:56;;;;;;;0.90;0.90;;;;;;;;;;5101053;28;20419;-84
2023/09/06 13:33:23;;;;;;;7.10;2.80;;;;;;;;;;5098414;28;20435;-84
2023/09/06 13:35:51;;;;;;;1.90;1.80;;;;;;;;;;5100986;28;20460;-86
2023/09/06 13:38:18;;;;;;;1.03;1.03;;;;;;;;;;5104405;28;20452;-80
2023/09/06 13:40:46;;;;;;;2.20;2.10;;;;;;;;;;5101013;28;20461;-85
2023/09/06 13:43:16;;;;;;;0.97;0.97;;;;;;;;;;5103035;28;20449;-84
2023/09/06 13:45:44;;;;;;;0.83;0.83;;;;;;;;;;5083967;28;20456;-85
2023/09/06 13:48:14;;;;;;;1.00;1.00;;;;;;;;;;5094705;28;20469;-84
2023/09/06 13:50:45;;;;;;;3.00;2.80;;;;;;;;;;5104047;28;20442;-85
2023/09/06 13:53:12;;;;;;;1.60;1.50;;;;;;;;;;5103630;28;20442;-85
2023/09/06 13:55:40;;;;;;;2.07;1.97;;;;;;;;;;5100675;28;20439;-86
2023/09/06 13:58:11;;;;;;;3.33;1.97;;;26.20;61.20;;;;;;5096068;28;20759;-83
2023/09/06 14:00:40;;;;;;;1.07;1.07;;;;;;;;;;5100505;28;20452;-85
2023/09/06 14:03:07;;;;;;;1.00;1.00;;;;;;;;;;5093329;28;20505;-81
2023/09/06 14:05:37;;;;;;;0.90;0.90;;;26.30;61.70;;;;;;5091611;28;20433;-84
2023/09/06 14:08:06;;;;;;;1.37;1.37;;;;;;;;;;5099940;28;20408;-86
2023/09/06 14:10:34;;;;;;;0.90;0.90;;;;;;;;;;5102629;28;20485;-80
2023/09/06 14:13:02;;;;;;;1.10;1.10;;;;;;;;;;5104971;28;20421;-87
2023/09/06 14:15:29;;;;;;;1.40;1.40;;;;;;;;;;5102071;28;20498;-84
2023/09/06 14:17:57;;;;;;;1.00;1.00;;;;;;;;;;5106253;28;20850;-86